Terminal Aerodrome Forecast
Issued by NWS

Home | Current Version | Previous Version | Text Only | Print | Product List | Glossary On
Versions: 1 2 3 4 5 6 7 8 9 10 11 12 13 14 15 16 17 18 19 20 21
740
FTUS43 KDVN 290520
TAFBRL
TAF
KBRL 290520Z 2906/3006 26006KT P6SM SCT100
     FM291600 29013G23KT P6SM SCT070
     FM300000 29009KT P6SM SCT050=

USA.gov is the U.S. government's official web portal to all federal, state and local government web resources and services.